sensor_id;sensor_type;location;lat;lon;timestamp;P1;durP1;ratioP1;P2;durP2;ratioP2
55827;SDS011;41758;51.992;5.890;2023-07-31T00:01:07;3.22;;;1.70;;
55827;SDS011;41758;51.992;5.890;2023-07-31T00:03:33;2.83;;;1.80;;
55827;SDS011;41758;51.992;5.890;2023-07-31T00:05:58;3.15;;;1.83;;
55827;SDS011;41758;51.992;5.890;2023-07-31T00:08:24;2.33;;;1.55;;
55827;SDS011;41758;51.992;5.890;2023-07-31T00:10:53;2.63;;;1.70;;
55827;SDS011;41758;51.992;5.890;2023-07-31T00:13:18;2.38;;;1.73;;
55827;SDS011;41758;51.992;5.890;2023-07-31T00:15:44;3.22;;;1.90;;
55827;SDS011;41758;51.992;5.890;2023-07-31T00:18:10;2.75;;;1.70;;
55827;SDS011;41758;51.992;5.890;2023-07-31T00:20:36;2.90;;;2.00;;
55827;SDS011;41758;51.992;5.890;2023-07-31T00:23:01;3.13;;;2.15;;
55827;SDS011;41758;51.992;5.890;2023-07-31T00:25:27;3.70;;;1.92;;
55827;SDS011;41758;51.992;5.890;2023-07-31T00:27:53;3.13;;;2.22;;
55827;SDS011;41758;51.992;5.890;2023-07-31T00:30:18;2.85;;;1.90;;
55827;SDS011;41758;51.992;5.890;2023-07-31T00:32:44;3.15;;;2.15;;
55827;SDS011;41758;51.992;5.890;2023-07-31T00:35:09;2.90;;;2.10;;
55827;SDS011;41758;51.992;5.890;2023-07-31T00:37:35;3.22;;;2.30;;
55827;SDS011;41758;51.992;5.890;2023-07-31T00:40:01;3.35;;;2.30;;
55827;SDS011;41758;51.992;5.890;2023-07-31T00:42:29;3.72;;;2.53;;
55827;SDS011;41758;51.992;5.890;2023-07-31T00:44:54;3.60;;;2.53;;
55827;SDS011;41758;51.992;5.890;2023-07-31T00:47:20;4.65;;;3.13;;
55827;SDS011;41758;51.992;5.890;2023-07-31T00:49:46;4.15;;;2.92;;
55827;SDS011;41758;51.992;5.890;2023-07-31T00:52:12;4.13;;;2.70;;
55827;SDS011;41758;51.992;5.890;2023-07-31T00:54:38;5.78;;;3.83;;
55827;SDS011;41758;51.992;5.890;2023-07-31T00:57:05;6.53;;;4.30;;
55827;SDS011;41758;51.992;5.890;2023-07-31T00:59:33;6.95;;;4.35;;
55827;SDS011;41758;51.992;5.890;2023-07-31T01:01:58;7.70;;;5.20;;
55827;SDS011;41758;51.992;5.890;2023-07-31T01:04:24;12.90;;;7.28;;
55827;SDS011;41758;51.992;5.890;2023-07-31T01:11:53;13.77;;;7.97;;
55827;SDS011;41758;51.992;5.890;2023-07-31T01:14:22;13.10;;;8.27;;
55827;SDS011;41758;51.992;5.890;2023-07-31T01:16:48;15.25;;;9.57;;
55827;SDS011;41758;51.992;5.890;2023-07-31T01:19:14;21.33;;;11.75;;
55827;SDS011;41758;51.992;5.890;2023-07-31T01:29:49;16.83;;;10.10;;
55827;SDS011;41758;51.992;5.890;2023-07-31T01:32:18;28.40;;;13.25;;
55827;SDS011;41758;51.992;5.890;2023-07-31T01:34:45;17.90;;;11.23;;
55827;SDS011;41758;51.992;5.890;2023-07-31T01:37:11;25.13;;;11.75;;
55827;SDS011;41758;51.992;5.890;2023-07-31T01:39:37;19.95;;;12.40;;
55827;SDS011;41758;51.992;5.890;2023-07-31T01:42:03;18.02;;;10.77;;
55827;SDS011;41758;51.992;5.890;2023-07-31T01:44:29;20.83;;;11.65;;
55827;SDS011;41758;51.992;5.890;2023-07-31T01:46:54;21.23;;;10.48;;
55827;SDS011;41758;51.992;5.890;2023-07-31T01:49:20;22.05;;;11.32;;
55827;SDS011;41758;51.992;5.890;2023-07-31T01:51:46;18.52;;;10.73;;
55827;SDS011;41758;51.992;5.890;2023-07-31T01:54:11;16.63;;;10.57;;
55827;SDS011;41758;51.992;5.890;2023-07-31T01:56:37;18.35;;;9.88;;
55827;SDS011;41758;51.992;5.890;2023-07-31T01:59:03;19.42;;;10.23;;
55827;SDS011;41758;51.992;5.890;2023-07-31T02:01:29;21.58;;;11.88;;
55827;SDS011;41758;51.992;5.890;2023-07-31T02:03:54;22.08;;;10.88;;
55827;SDS011;41758;51.992;5.890;2023-07-31T02:06:21;22.35;;;11.57;;
55827;SDS011;41758;51.992;5.890;2023-07-31T02:08:48;21.20;;;11.27;;
55827;SDS011;41758;51.992;5.890;2023-07-31T02:11:14;21.25;;;11.52;;
55827;SDS011;41758;51.992;5.890;2023-07-31T02:13:39;22.27;;;11.45;;
55827;SDS011;41758;51.992;5.890;2023-07-31T02:16:05;23.60;;;11.60;;
55827;SDS011;41758;51.992;5.890;2023-07-31T02:18:32;21.98;;;10.90;;
55827;SDS011;41758;51.992;5.890;2023-07-31T02:20:58;19.25;;;10.93;;
55827;SDS011;41758;51.992;5.890;2023-07-31T02:23:24;21.17;;;10.98;;
55827;SDS011;41758;51.992;5.890;2023-07-31T02:25:50;16.23;;;9.75;;
55827;SDS011;41758;51.992;5.890;2023-07-31T02:28:16;15.55;;;8.85;;
55827;SDS011;41758;51.992;5.890;2023-07-31T02:30:44;19.92;;;9.68;;
55827;SDS011;41758;51.992;5.890;2023-07-31T02:33:11;19.63;;;10.27;;
55827;SDS011;41758;51.992;5.890;2023-07-31T02:35:37;18.25;;;9.30;;
55827;SDS011;41758;51.992;5.890;2023-07-31T02:38:02;20.17;;;10.00;;
55827;SDS011;41758;51.992;5.890;2023-07-31T02:40:28;14.48;;;8.38;;
55827;SDS011;41758;51.992;5.890;2023-07-31T02:42:54;12.00;;;7.30;;
55827;SDS011;41758;51.992;5.890;2023-07-31T02:45:20;15.43;;;7.90;;
55827;SDS011;41758;51.992;5.890;2023-07-31T02:47:45;12.55;;;7.10;;
55827;SDS011;41758;51.992;5.890;2023-07-31T02:50:11;12.52;;;7.57;;
55827;SDS011;41758;51.992;5.890;2023-07-31T02:52:37;14.80;;;8.52;;
55827;SDS011;41758;51.992;5.890;2023-07-31T02:55:03;20.02;;;9.82;;
55827;SDS011;41758;51.992;5.890;2023-07-31T02:57:28;16.50;;;8.95;;
55827;SDS011;41758;51.992;5.890;2023-07-31T02:59:54;16.10;;;8.80;;
55827;SDS011;41758;51.992;5.890;2023-07-31T03:02:20;14.20;;;8.23;;
55827;SDS011;41758;51.992;5.890;2023-07-31T03:04:45;14.57;;;7.93;;
55827;SDS011;41758;51.992;5.890;2023-07-31T03:07:11;20.08;;;9.40;;
55827;SDS011;41758;51.992;5.890;2023-07-31T03:09:37;17.48;;;9.45;;
55827;SDS011;41758;51.992;5.890;2023-07-31T03:12:03;15.88;;;9.02;;
55827;SDS011;41758;51.992;5.890;2023-07-31T03:14:29;14.52;;;8.50;;
55827;SDS011;41758;51.992;5.890;2023-07-31T03:16:54;16.73;;;9.00;;
55827;SDS011;41758;51.992;5.890;2023-07-31T03:19:20;14.60;;;8.85;;
55827;SDS011;41758;51.992;5.890;2023-07-31T03:21:46;17.90;;;9.50;;
55827;SDS011;41758;51.992;5.890;2023-07-31T03:24:12;21.67;;;10.60;;
55827;SDS011;41758;51.992;5.890;2023-07-31T03:26:37;22.48;;;10.23;;
55827;SDS011;41758;51.992;5.890;2023-07-31T03:29:06;15.63;;;9.23;;
55827;SDS011;41758;51.992;5.890;2023-07-31T03:31:32;17.70;;;8.70;;
55827;SDS011;41758;51.992;5.890;2023-07-31T03:33:58;19.40;;;9.77;;
55827;SDS011;41758;51.992;5.890;2023-07-31T03:36:24;18.98;;;10.63;;
55827;SDS011;41758;51.992;5.890;2023-07-31T03:38:51;17.85;;;9.52;;
55827;SDS011;41758;51.992;5.890;2023-07-31T03:41:17;19.08;;;9.23;;
55827;SDS011;41758;51.992;5.890;2023-07-31T03:43:45;17.30;;;8.70;;
55827;SDS011;41758;51.992;5.890;2023-07-31T03:46:13;19.85;;;10.30;;
55827;SDS011;41758;51.992;5.890;2023-07-31T03:48:38;21.15;;;10.27;;
55827;SDS011;41758;51.992;5.890;2023-07-31T03:51:04;17.33;;;9.30;;
55827;SDS011;41758;51.992;5.890;2023-07-31T03:53:30;17.65;;;8.57;;
55827;SDS011;41758;51.992;5.890;2023-07-31T03:55:56;15.10;;;8.15;;
55827;SDS011;41758;51.992;5.890;2023-07-31T03:58:22;14.68;;;8.10;;
55827;SDS011;41758;51.992;5.890;2023-07-31T04:00:47;15.60;;;8.55;;
55827;SDS011;41758;51.992;5.890;2023-07-31T04:03:13;19.88;;;9.35;;
55827;SDS011;41758;51.992;5.890;2023-07-31T04:05:39;14.30;;;8.18;;
55827;SDS011;41758;51.992;5.890;2023-07-31T04:08:05;15.27;;;8.20;;
55827;SDS011;41758;51.992;5.890;2023-07-31T04:10:31;16.90;;;8.75;;
55827;SDS011;41758;51.992;5.890;2023-07-31T04:12:58;16.60;;;8.68;;
55827;SDS011;41758;51.992;5.890;2023-07-31T04:15:25;14.30;;;7.88;;
55827;SDS011;41758;51.992;5.890;2023-07-31T04:17:51;17.00;;;8.52;;
55827;SDS011;41758;51.992;5.890;2023-07-31T04:20:17;16.75;;;8.98;;
55827;SDS011;41758;51.992;5.890;2023-07-31T04:22:42;19.35;;;8.98;;
55827;SDS011;41758;51.992;5.890;2023-07-31T04:25:08;15.18;;;8.77;;
55827;SDS011;41758;51.992;5.890;2023-07-31T04:27:34;13.23;;;8.02;;
55827;SDS011;41758;51.992;5.890;2023-07-31T04:30:00;17.02;;;8.30;;
55827;SDS011;41758;51.992;5.890;2023-07-31T04:32:25;23.83;;;10.27;;
55827;SDS011;41758;51.992;5.890;2023-07-31T04:34:51;20.85;;;9.73;;
55827;SDS011;41758;51.992;5.890;2023-07-31T04:37:17;18.58;;;9.43;;
55827;SDS011;41758;51.992;5.890;2023-07-31T04:39:43;18.00;;;9.40;;
55827;SDS011;41758;51.992;5.890;2023-07-31T04:42:08;15.20;;;9.00;;
55827;SDS011;41758;51.992;5.890;2023-07-31T04:44:35;15.15;;;8.52;;
55827;SDS011;41758;51.992;5.890;2023-07-31T04:47:00;18.13;;;9.48;;
55827;SDS011;41758;51.992;5.890;2023-07-31T04:49:27;16.65;;;8.90;;
55827;SDS011;41758;51.992;5.890;2023-07-31T04:51:53;18.58;;;9.23;;
55827;SDS011;41758;51.992;5.890;2023-07-31T04:54:18;14.55;;;8.02;;
55827;SDS011;41758;51.992;5.890;2023-07-31T04:56:44;15.02;;;8.93;;
55827;SDS011;41758;51.992;5.890;2023-07-31T04:59:10;14.88;;;8.63;;
55827;SDS011;41758;51.992;5.890;2023-07-31T05:01:35;19.25;;;8.95;;
55827;SDS011;41758;51.992;5.890;2023-07-31T05:04:01;14.98;;;7.80;;
55827;SDS011;41758;51.992;5.890;2023-07-31T05:06:27;15.65;;;8.75;;
55827;SDS011;41758;51.992;5.890;2023-07-31T05:08:53;16.35;;;9.05;;
55827;SDS011;41758;51.992;5.890;2023-07-31T05:11:18;13.60;;;8.15;;
55827;SDS011;41758;51.992;5.890;2023-07-31T05:13:44;17.50;;;9.00;;
55827;SDS011;41758;51.992;5.890;2023-07-31T05:16:10;15.80;;;8.68;;
55827;SDS011;41758;51.992;5.890;2023-07-31T05:18:35;18.90;;;9.27;;
55827;SDS011;41758;51.992;5.890;2023-07-31T05:21:01;17.20;;;9.23;;
55827;SDS011;41758;51.992;5.890;2023-07-31T05:23:27;11.88;;;8.18;;
55827;SDS011;41758;51.992;5.890;2023-07-31T05:25:53;13.95;;;8.70;;
55827;SDS011;41758;51.992;5.890;2023-07-31T05:28:18;14.27;;;8.15;;
55827;SDS011;41758;51.992;5.890;2023-07-31T05:30:46;14.10;;;8.05;;
55827;SDS011;41758;51.992;5.890;2023-07-31T05:33:11;15.85;;;8.27;;
55827;SDS011;41758;51.992;5.890;2023-07-31T05:35:37;14.77;;;8.35;;
55827;SDS011;41758;51.992;5.890;2023-07-31T05:38:03;15.27;;;7.75;;
55827;SDS011;41758;51.992;5.890;2023-07-31T05:40:31;10.55;;;6.85;;
55827;SDS011;41758;51.992;5.890;2023-07-31T05:42:58;12.00;;;7.53;;
55827;SDS011;41758;51.992;5.890;2023-07-31T05:45:25;13.45;;;7.75;;
55827;SDS011;41758;51.992;5.890;2023-07-31T05:47:50;14.13;;;8.75;;
55827;SDS011;41758;51.992;5.890;2023-07-31T05:50:16;14.73;;;8.45;;
55827;SDS011;41758;51.992;5.890;2023-07-31T05:52:42;18.20;;;9.65;;
55827;SDS011;41758;51.992;5.890;2023-07-31T05:55:08;13.57;;;8.52;;
55827;SDS011;41758;51.992;5.890;2023-07-31T05:57:33;15.02;;;8.15;;
55827;SDS011;41758;51.992;5.890;2023-07-31T05:59:59;11.30;;;7.20;;
55827;SDS011;41758;51.992;5.890;2023-07-31T06:02:25;14.40;;;7.95;;
55827;SDS011;41758;51.992;5.890;2023-07-31T06:04:50;14.20;;;7.90;;
55827;SDS011;41758;51.992;5.890;2023-07-31T06:07:16;12.32;;;7.78;;
55827;SDS011;41758;51.992;5.890;2023-07-31T06:09:42;15.52;;;7.88;;
55827;SDS011;41758;51.992;5.890;2023-07-31T06:12:08;12.85;;;7.40;;
55827;SDS011;41758;51.992;5.890;2023-07-31T06:14:34;14.02;;;7.22;;
55827;SDS011;41758;51.992;5.890;2023-07-31T06:16:59;12.65;;;7.43;;
55827;SDS011;41758;51.992;5.890;2023-07-31T06:19:25;12.82;;;7.45;;
55827;SDS011;41758;51.992;5.890;2023-07-31T06:21:51;11.27;;;6.55;;
55827;SDS011;41758;51.992;5.890;2023-07-31T06:24:16;12.95;;;6.85;;
55827;SDS011;41758;51.992;5.890;2023-07-31T06:26:45;11.45;;;6.95;;
55827;SDS011;41758;51.992;5.890;2023-07-31T06:29:11;13.90;;;7.32;;
55827;SDS011;41758;51.992;5.890;2023-07-31T06:31:36;11.25;;;7.00;;
55827;SDS011;41758;51.992;5.890;2023-07-31T06:34:02;10.45;;;6.82;;
55827;SDS011;41758;51.992;5.890;2023-07-31T06:36:28;10.77;;;6.43;;
55827;SDS011;41758;51.992;5.890;2023-07-31T06:38:53;11.75;;;6.63;;
55827;SDS011;41758;51.992;5.890;2023-07-31T06:41:19;10.85;;;6.65;;
55827;SDS011;41758;51.992;5.890;2023-07-31T06:43:45;10.75;;;6.18;;
55827;SDS011;41758;51.992;5.890;2023-07-31T06:46:11;13.82;;;6.90;;
55827;SDS011;41758;51.992;5.890;2023-07-31T06:48:37;8.93;;;6.00;;
55827;SDS011;41758;51.992;5.890;2023-07-31T06:51:02;10.00;;;6.07;;
55827;SDS011;41758;51.992;5.890;2023-07-31T06:53:28;9.48;;;6.13;;
55827;SDS011;41758;51.992;5.890;2023-07-31T06:55:54;8.50;;;5.57;;
55827;SDS011;41758;51.992;5.890;2023-07-31T06:58:20;9.73;;;5.38;;
55827;SDS011;41758;51.992;5.890;2023-07-31T07:00:46;10.80;;;5.75;;
55827;SDS011;41758;51.992;5.890;2023-07-31T07:03:11;11.43;;;5.78;;
55827;SDS011;41758;51.992;5.890;2023-07-31T07:05:39;8.43;;;5.10;;
55827;SDS011;41758;51.992;5.890;2023-07-31T07:08:05;8.27;;;4.45;;
55827;SDS011;41758;51.992;5.890;2023-07-31T07:10:31;7.22;;;4.20;;
55827;SDS011;41758;51.992;5.890;2023-07-31T07:12:57;8.40;;;4.60;;
55827;SDS011;41758;51.992;5.890;2023-07-31T07:15:22;7.43;;;4.13;;
55827;SDS011;41758;51.992;5.890;2023-07-31T07:17:48;7.72;;;3.90;;
55827;SDS011;41758;51.992;5.890;2023-07-31T07:20:14;5.97;;;3.70;;
55827;SDS011;41758;51.992;5.890;2023-07-31T07:22:40;6.80;;;3.88;;
55827;SDS011;41758;51.992;5.890;2023-07-31T07:25:08;5.43;;;3.53;;
55827;SDS011;41758;51.992;5.890;2023-07-31T07:27:34;4.50;;;3.13;;
55827;SDS011;41758;51.992;5.890;2023-07-31T07:29:59;5.18;;;3.08;;
55827;SDS011;41758;51.992;5.890;2023-07-31T07:32:25;6.00;;;3.25;;
55827;SDS011;41758;51.992;5.890;2023-07-31T07:34:51;5.45;;;3.00;;
55827;SDS011;41758;51.992;5.890;2023-07-31T07:37:17;4.45;;;2.70;;
55827;SDS011;41758;51.992;5.890;2023-07-31T07:39:43;4.00;;;2.50;;
55827;SDS011;41758;51.992;5.890;2023-07-31T07:42:09;5.43;;;2.90;;
55827;SDS011;41758;51.992;5.890;2023-07-31T07:44:34;4.15;;;2.47;;
55827;SDS011;41758;51.992;5.890;2023-07-31T07:47:00;4.85;;;2.40;;
55827;SDS011;41758;51.992;5.890;2023-07-31T07:49:26;4.15;;;2.55;;
55827;SDS011;41758;51.992;5.890;2023-07-31T07:51:51;4.10;;;2.50;;
55827;SDS011;41758;51.992;5.890;2023-07-31T07:54:17;3.60;;;2.30;;
55827;SDS011;41758;51.992;5.890;2023-07-31T07:56:43;3.30;;;2.10;;
55827;SDS011;41758;51.992;5.890;2023-07-31T07:59:08;4.15;;;2.42;;
55827;SDS011;41758;51.992;5.890;2023-07-31T08:01:34;3.90;;;2.33;;
55827;SDS011;41758;51.992;5.890;2023-07-31T08:04:00;3.45;;;2.00;;
55827;SDS011;41758;51.992;5.890;2023-07-31T08:06:25;3.78;;;2.10;;
55827;SDS011;41758;51.992;5.890;2023-07-31T08:08:51;4.70;;;2.50;;
55827;SDS011;41758;51.992;5.890;2023-07-31T08:11:17;3.55;;;2.28;;
55827;SDS011;41758;51.992;5.890;2023-07-31T08:13:42;3.10;;;2.15;;
55827;SDS011;41758;51.992;5.890;2023-07-31T08:16:08;3.83;;;2.60;;
55827;SDS011;41758;51.992;5.890;2023-07-31T08:18:35;4.10;;;2.70;;
55827;SDS011;41758;51.992;5.890;2023-07-31T08:21:03;4.43;;;2.67;;
55827;SDS011;41758;51.992;5.890;2023-07-31T08:23:30;4.30;;;3.00;;
55827;SDS011;41758;51.992;5.890;2023-07-31T08:25:55;4.45;;;3.03;;
55827;SDS011;41758;51.992;5.890;2023-07-31T08:28:21;4.55;;;3.00;;
55827;SDS011;41758;51.992;5.890;2023-07-31T08:30:47;5.50;;;3.50;;
55827;SDS011;41758;51.992;5.890;2023-07-31T08:33:13;6.07;;;3.65;;
55827;SDS011;41758;51.992;5.890;2023-07-31T08:35:38;5.30;;;3.55;;
55827;SDS011;41758;51.992;5.890;2023-07-31T08:38:04;4.90;;;3.50;;
55827;SDS011;41758;51.992;5.890;2023-07-31T08:40:30;4.55;;;3.50;;
55827;SDS011;41758;51.992;5.890;2023-07-31T08:42:55;5.22;;;3.83;;
55827;SDS011;41758;51.992;5.890;2023-07-31T08:45:22;6.25;;;4.00;;
55827;SDS011;41758;51.992;5.890;2023-07-31T08:47:49;5.53;;;4.15;;
55827;SDS011;41758;51.992;5.890;2023-07-31T08:50:17;5.22;;;4.20;;
55827;SDS011;41758;51.992;5.890;2023-07-31T08:52:47;5.93;;;3.90;;
55827;SDS011;41758;51.992;5.890;2023-07-31T08:55:14;5.70;;;3.90;;
55827;SDS011;41758;51.992;5.890;2023-07-31T08:57:40;5.88;;;4.95;;
55827;SDS011;41758;51.992;5.890;2023-07-31T09:00:08;4.85;;;4.32;;
55827;SDS011;41758;51.992;5.890;2023-07-31T09:02:41;6.82;;;4.80;;
55827;SDS011;41758;51.992;5.890;2023-07-31T09:05:11;5.57;;;4.05;;
55827;SDS011;41758;51.992;5.890;2023-07-31T09:07:37;7.25;;;4.63;;
55827;SDS011;41758;51.992;5.890;2023-07-31T09:10:04;6.28;;;4.88;;
55827;SDS011;41758;51.992;5.890;2023-07-31T09:12:31;5.32;;;4.32;;
55827;SDS011;41758;51.992;5.890;2023-07-31T09:14:57;5.82;;;5.00;;
55827;SDS011;41758;51.992;5.890;2023-07-31T09:17:30;5.28;;;4.43;;
55827;SDS011;41758;51.992;5.890;2023-07-31T09:19:57;6.25;;;4.70;;
55827;SDS011;41758;51.992;5.890;2023-07-31T09:22:32;5.47;;;4.85;;
55827;SDS011;41758;51.992;5.890;2023-07-31T09:27:48;7.00;;;5.45;;
55827;SDS011;41758;51.992;5.890;2023-07-31T09:30:22;8.23;;;5.47;;
55827;SDS011;41758;51.992;5.890;2023-07-31T09:32:48;6.45;;;5.65;;
55827;SDS011;41758;51.992;5.890;2023-07-31T09:37:52;8.07;;;7.05;;
55827;SDS011;41758;51.992;5.890;2023-07-31T09:40:52;8.70;;;7.18;;
55827;SDS011;41758;51.992;5.890;2023-07-31T09:43:12;8.38;;;7.25;;
55827;SDS011;41758;51.992;5.890;2023-07-31T09:45:42;8.00;;;6.93;;
55827;SDS011;41758;51.992;5.890;2023-07-31T09:48:09;8.77;;;7.88;;
55827;SDS011;41758;51.992;5.890;2023-07-31T09:50:37;11.07;;;8.65;;
55827;SDS011;41758;51.992;5.890;2023-07-31T09:53:04;10.73;;;9.13;;
55827;SDS011;41758;51.992;5.890;2023-07-31T09:55:31;9.80;;;8.77;;
55827;SDS011;41758;51.992;5.890;2023-07-31T09:57:57;10.43;;;9.23;;
55827;SDS011;41758;51.992;5.890;2023-07-31T10:00:23;10.32;;;9.02;;
55827;SDS011;41758;51.992;5.890;2023-07-31T10:02:52;11.07;;;9.82;;
55827;SDS011;41758;51.992;5.890;2023-07-31T10:05:19;10.93;;;9.82;;
55827;SDS011;41758;51.992;5.890;2023-07-31T10:07:49;10.85;;;9.63;;
55827;SDS011;41758;51.992;5.890;2023-07-31T10:10:19;11.13;;;9.93;;
55827;SDS011;41758;51.992;5.890;2023-07-31T10:12:47;13.40;;;12.02;;
55827;SDS011;41758;51.992;5.890;2023-07-31T10:15:15;12.55;;;11.25;;
55827;SDS011;41758;51.992;5.890;2023-07-31T10:17:41;12.10;;;10.90;;
55827;SDS011;41758;51.992;5.890;2023-07-31T10:20:07;11.50;;;10.32;;
55827;SDS011;41758;51.992;5.890;2023-07-31T10:22:34;11.95;;;10.65;;
55827;SDS011;41758;51.992;5.890;2023-07-31T10:25:00;13.40;;;12.10;;
55827;SDS011;41758;51.992;5.890;2023-07-31T10:27:26;11.23;;;10.13;;
55827;SDS011;41758;51.992;5.890;2023-07-31T10:29:54;15.15;;;13.60;;
55827;SDS011;41758;51.992;5.890;2023-07-31T10:32:21;14.73;;;13.23;;
55827;SDS011;41758;51.992;5.890;2023-07-31T10:34:49;13.27;;;11.98;;
55827;SDS011;41758;51.992;5.890;2023-07-31T10:37:20;11.77;;;10.57;;
55827;SDS011;41758;51.992;5.890;2023-07-31T10:39:58;12.30;;;11.10;;
55827;SDS011;41758;51.992;5.890;2023-07-31T10:42:33;12.50;;;11.40;;
55827;SDS011;41758;51.992;5.890;2023-07-31T10:45:10;15.45;;;13.82;;
55827;SDS011;41758;51.992;5.890;2023-07-31T10:47:36;13.43;;;12.15;;
55827;SDS011;41758;51.992;5.890;2023-07-31T10:50:19;17.58;;;14.57;;
55827;SDS011;41758;51.992;5.890;2023-07-31T10:52:50;14.60;;;13.20;;
55827;SDS011;41758;51.992;5.890;2023-07-31T10:57:49;15.05;;;13.55;;
55827;SDS011;41758;51.992;5.890;2023-07-31T11:00:19;15.60;;;14.00;;
55827;SDS011;41758;51.992;5.890;2023-07-31T11:02:56;14.90;;;13.30;;
55827;SDS011;41758;51.992;5.890;2023-07-31T11:08:14;14.40;;;12.95;;
55827;SDS011;41758;51.992;5.890;2023-07-31T11:10:45;12.27;;;11.07;;
55827;SDS011;41758;51.992;5.890;2023-07-31T11:13:12;14.90;;;12.95;;
55827;SDS011;41758;51.992;5.890;2023-07-31T11:15:38;13.73;;;12.32;;
55827;SDS011;41758;51.992;5.890;2023-07-31T11:18:04;14.00;;;12.60;;
55827;SDS011;41758;51.992;5.890;2023-07-31T11:20:34;12.98;;;11.57;;
55827;SDS011;41758;51.992;5.890;2023-07-31T11:23:01;13.85;;;12.20;;
55827;SDS011;41758;51.992;5.890;2023-07-31T11:25:29;12.77;;;11.48;;
55827;SDS011;41758;51.992;5.890;2023-07-31T11:27:56;12.70;;;11.38;;
55827;SDS011;41758;51.992;5.890;2023-07-31T11:30:27;10.35;;;9.35;;
55827;SDS011;41758;51.992;5.890;2023-07-31T11:32:54;12.70;;;11.40;;
55827;SDS011;41758;51.992;5.890;2023-07-31T11:35:21;12.95;;;11.55;;
55827;SDS011;41758;51.992;5.890;2023-07-31T11:37:47;13.65;;;12.13;;
55827;SDS011;41758;51.992;5.890;2023-07-31T11:40:14;10.63;;;9.52;;
55827;SDS011;41758;51.992;5.890;2023-07-31T11:42:40;12.40;;;11.15;;
55827;SDS011;41758;51.992;5.890;2023-07-31T11:45:07;13.38;;;12.07;;
55827;SDS011;41758;51.992;5.890;2023-07-31T11:47:34;11.80;;;10.65;;
55827;SDS011;41758;51.992;5.890;2023-07-31T11:50:02;14.02;;;12.52;;
55827;SDS011;41758;51.992;5.890;2023-07-31T11:52:36;11.85;;;10.10;;
55827;SDS011;41758;51.992;5.890;2023-07-31T11:55:05;11.57;;;10.48;;
55827;SDS011;41758;51.992;5.890;2023-07-31T11:57:34;13.40;;;12.00;;
55827;SDS011;41758;51.992;5.890;2023-07-31T12:00:02;11.23;;;10.13;;
55827;SDS011;41758;51.992;5.890;2023-07-31T12:02:29;12.15;;;10.95;;
55827;SDS011;41758;51.992;5.890;2023-07-31T12:04:55;11.00;;;9.90;;
55827;SDS011;41758;51.992;5.890;2023-07-31T12:07:21;10.35;;;9.32;;
55827;SDS011;41758;51.992;5.890;2023-07-31T12:09:54;11.30;;;10.10;;
55827;SDS011;41758;51.992;5.890;2023-07-31T12:12:20;10.55;;;9.45;;
55827;SDS011;41758;51.992;5.890;2023-07-31T12:14:48;10.63;;;9.52;;
55827;SDS011;41758;51.992;5.890;2023-07-31T12:17:15;9.38;;;8.48;;
55827;SDS011;41758;51.992;5.890;2023-07-31T12:19:45;11.02;;;9.35;;
55827;SDS011;41758;51.992;5.890;2023-07-31T12:22:13;11.65;;;9.80;;
55827;SDS011;41758;51.992;5.890;2023-07-31T12:24:41;11.57;;;10.38;;
55827;SDS011;41758;51.992;5.890;2023-07-31T12:27:12;14.40;;;11.50;;
55827;SDS011;41758;51.992;5.890;2023-07-31T12:29:40;11.93;;;10.77;;
55827;SDS011;41758;51.992;5.890;2023-07-31T12:32:24;10.98;;;9.88;;
55827;SDS011;41758;51.992;5.890;2023-07-31T12:34:54;12.85;;;10.23;;
55827;SDS011;41758;51.992;5.890;2023-07-31T12:37:23;12.35;;;11.02;;
55827;SDS011;41758;51.992;5.890;2023-07-31T12:39:48;12.73;;;10.32;;
55827;SDS011;41758;51.992;5.890;2023-07-31T12:42:16;12.25;;;10.15;;
55827;SDS011;41758;51.992;5.890;2023-07-31T12:44:42;13.45;;;10.52;;
55827;SDS011;41758;51.992;5.890;2023-07-31T12:47:08;10.00;;;9.00;;
55827;SDS011;41758;51.992;5.890;2023-07-31T12:49:34;9.10;;;8.20;;
55827;SDS011;41758;51.992;5.890;2023-07-31T12:51:59;10.48;;;9.25;;
55827;SDS011;41758;51.992;5.890;2023-07-31T12:54:25;12.52;;;10.63;;
55827;SDS011;41758;51.992;5.890;2023-07-31T12:56:51;12.25;;;11.05;;
55827;SDS011;41758;51.992;5.890;2023-07-31T12:59:16;12.13;;;10.77;;
55827;SDS011;41758;51.992;5.890;2023-07-31T13:01:42;11.77;;;10.55;;
55827;SDS011;41758;51.992;5.890;2023-07-31T13:04:08;11.50;;;9.77;;
55827;SDS011;41758;51.992;5.890;2023-07-31T13:06:33;12.05;;;10.85;;
55827;SDS011;41758;51.992;5.890;2023-07-31T13:08:59;11.95;;;10.70;;
55827;SDS011;41758;51.992;5.890;2023-07-31T13:11:25;11.50;;;10.05;;
55827;SDS011;41758;51.992;5.890;2023-07-31T13:13:51;10.23;;;9.07;;
55827;SDS011;41758;51.992;5.890;2023-07-31T13:16:16;11.45;;;10.23;;
55827;SDS011;41758;51.992;5.890;2023-07-31T13:18:42;12.40;;;11.07;;
55827;SDS011;41758;51.992;5.890;2023-07-31T13:21:07;12.10;;;10.30;;
55827;SDS011;41758;51.992;5.890;2023-07-31T13:23:33;13.50;;;11.40;;
55827;SDS011;41758;51.992;5.890;2023-07-31T13:25:59;11.52;;;9.77;;
55827;SDS011;41758;51.992;5.890;2023-07-31T13:28:24;11.90;;;9.73;;
55827;SDS011;41758;51.992;5.890;2023-07-31T13:30:50;13.50;;;12.10;;
55827;SDS011;41758;51.992;5.890;2023-07-31T13:33:16;15.13;;;11.18;;
55827;SDS011;41758;51.992;5.890;2023-07-31T13:35:41;13.75;;;11.80;;
55827;SDS011;41758;51.992;5.890;2023-07-31T13:38:07;11.73;;;10.23;;
55827;SDS011;41758;51.992;5.890;2023-07-31T13:40:33;9.70;;;8.70;;
55827;SDS011;41758;51.992;5.890;2023-07-31T13:42:58;11.65;;;10.45;;
55827;SDS011;41758;51.992;5.890;2023-07-31T13:45:24;10.77;;;9.68;;
55827;SDS011;41758;51.992;5.890;2023-07-31T13:47:50;10.60;;;9.50;;
55827;SDS011;41758;51.992;5.890;2023-07-31T13:50:16;11.85;;;10.05;;
55827;SDS011;41758;51.992;5.890;2023-07-31T13:52:44;9.60;;;8.60;;
55827;SDS011;41758;51.992;5.890;2023-07-31T13:55:09;10.45;;;9.32;;
55827;SDS011;41758;51.992;5.890;2023-07-31T13:57:35;12.38;;;10.27;;
55827;SDS011;41758;51.992;5.890;2023-07-31T14:00:01;11.32;;;9.65;;
55827;SDS011;41758;51.992;5.890;2023-07-31T14:02:30;11.20;;;9.45;;
55827;SDS011;41758;51.992;5.890;2023-07-31T14:04:55;9.57;;;8.57;;
55827;SDS011;41758;51.992;5.890;2023-07-31T14:07:21;11.35;;;9.15;;
55827;SDS011;41758;51.992;5.890;2023-07-31T14:09:47;11.63;;;9.20;;
55827;SDS011;41758;51.992;5.890;2023-07-31T14:12:12;10.60;;;9.50;;
55827;SDS011;41758;51.992;5.890;2023-07-31T14:14:38;11.85;;;9.63;;
55827;SDS011;41758;51.992;5.890;2023-07-31T14:17:04;11.32;;;10.13;;
55827;SDS011;41758;51.992;5.890;2023-07-31T14:19:30;12.38;;;10.30;;
55827;SDS011;41758;51.992;5.890;2023-07-31T14:21:58;13.30;;;10.13;;
55827;SDS011;41758;51.992;5.890;2023-07-31T14:24:24;11.63;;;10.02;;
55827;SDS011;41758;51.992;5.890;2023-07-31T14:26:49;13.93;;;10.23;;
55827;SDS011;41758;51.992;5.890;2023-07-31T14:29:15;14.32;;;10.82;;
55827;SDS011;41758;51.992;5.890;2023-07-31T14:31:41;11.10;;;8.70;;
55827;SDS011;41758;51.992;5.890;2023-07-31T14:34:06;11.48;;;9.10;;
55827;SDS011;41758;51.992;5.890;2023-07-31T14:36:32;12.70;;;10.55;;
55827;SDS011;41758;51.992;5.890;2023-07-31T14:38:58;13.65;;;10.18;;
55827;SDS011;41758;51.992;5.890;2023-07-31T14:41:24;13.77;;;10.32;;
55827;SDS011;41758;51.992;5.890;2023-07-31T14:43:49;14.48;;;10.30;;
55827;SDS011;41758;51.992;5.890;2023-07-31T14:46:15;11.02;;;8.60;;
55827;SDS011;41758;51.992;5.890;2023-07-31T14:48:41;12.35;;;8.90;;
55827;SDS011;41758;51.992;5.890;2023-07-31T14:51:06;15.18;;;10.30;;
55827;SDS011;41758;51.992;5.890;2023-07-31T14:53:32;13.98;;;10.15;;